Avera, GA

11:26 AM EDT on July 24, 2014 (GMT -0400)
Thomson-McDuffie County (KHQU) Elev 499 ft | 33.53 °N, 82.52 °W | Change Station

Current weather conditions updated 11 minutes ago

Clear
Clear
88 °F
Feels Like 101 °F
N
9
Wind Variable Wind from West

Today is forecast to be nearly the same temperature as yesterday. Partly cloudy, chance of a thunderstorm.

Today
High -- | Low -- °F
--% Chance of Precip.
Yesterday
High -- | Low -- °F
Precip. -- in
6:37 AM 8:35 PM
Waning Crescent, 5% visible
Pressure 30.03 in
Visibility 10.0 miles
Clouds Clear
Heat Index 101 °F
Dew Point 77 °F
Humidity 69%
Rainfall 0.00 in
Snow Depth Not available.
UV 9 out of 12
Pollen 4.50 out of 12
Air Quality Not available.
Flu Activity Not available.
METAR KHQU 241515Z AUTO 27008KT 220V290 10SM CLR 31/25 A3003 RMK AO1 T03140251

More Conditions Fewer Conditions

Pressure 30.03 in
Visibility 10.0 miles
Clouds Clear
Heat Index 101 °F
Dew Point 77 °F
Humidity 69%
Rainfall 0.00 in
Snow Depth Not available.
UV 9 out of 12
Pollen 4.50 out of 12
Air Quality Not available.
Flu Activity Not available.
METAR KHQU 241515Z AUTO 27008KT 220V290 10SM CLR 31/25 A3003 RMK AO1 T03140251

More Conditions Fewer Conditions

10-Day Weather Forecast

Almanac

Astronomy

Jul. 24, 2014 Rise Set
Actual Time 6:37 AM EDT 8:35 PM EDT
Civil Twilight 6:10 AM EDT 9:02 PM EDT
Nautical Twilight 5:36 AM EDT 9:36 PM EDT
Astronomical Twilight 5:00 AM EDT 10:11 PM EDT
Moon 4:43 AM EDT 6:50 PM EDT
Length of Visible Light 14h 52m
Length of Day
13h 57m
Tomorrow will be 1m 20s shorter.
Waning Crescent, 5% of the Moon is Illuminated
Today
Waning Crescent
Jul 26
New
Aug 3
First Quarter
Aug 10
Full
Aug 17
Last Quarter

Today's Extremes

State Highs State Lows

Community

WunderPhotos

Upload Photos

1,737,042 photos uploaded!

Nearby

Snow Depth

Station Depth Elevation
No new snow has been reported.

Earthquake Activity

City Distance Mag. Time & Date
No recent earthquake activity has been reported nearby.
Minimum magnitude displayed is 2.5.

Coastal Water Temperatures

Place Temperature
No Stations Reporting

Nearby Weather Stations

Station Location Temp. Heat Index Dew Point Humidity Wind Precip. Elev Updated Type
RAWS LOUISVILLE GA, Louisville, GA 84 °F 91 °F 74 °F 71% WNW  at  8 mph 0.00 in / hr 311 ft 10:03 AM EDT MADIS

Show More Stations Show Fewer Stations